createdAt,value
2023-04-27T00:00:02.223Z,97.78
2023-04-27T00:01:02.225Z,97.78
2023-04-27T00:02:02.397Z,97.68
2023-04-27T00:03:02.381Z,97.27
2023-04-27T00:04:02.450Z,96.95
2023-04-27T00:05:02.471Z,96.85
2023-04-27T00:06:02.313Z,96.75
2023-04-27T00:07:02.154Z,97.16
2023-04-27T00:08:02.137Z,96.85
2023-04-27T00:09:02.178Z,97.16
2023-04-27T00:10:02.147Z,98.10
2023-04-27T00:11:02.154Z,97.89
2023-04-27T00:12:02.163Z,97.37
2023-04-27T00:13:02.100Z,97.16
2023-04-27T00:14:02.110Z,96.95
2023-04-27T00:15:02.082Z,97.06
2023-04-27T00:16:02.095Z,98.10
2023-04-27T00:17:02.093Z,98.72
2023-04-27T00:18:02.155Z,98.41
2023-04-27T00:19:02.078Z,98.52
2023-04-27T00:20:02.034Z,98.10
2023-04-27T00:21:02.022Z,97.78
2023-04-27T00:22:02.060Z,98.10
2023-04-27T00:23:02.003Z,97.37
2023-04-27T00:24:02.011Z,97.27
2023-04-27T00:25:01.996Z,98.10
2023-04-27T00:26:01.954Z,98.31
2023-04-27T00:27:01.991Z,97.99
2023-04-27T00:28:01.949Z,98.31
2023-04-27T00:29:01.963Z,98.72
2023-04-27T00:30:01.975Z,99.04
2023-04-27T00:31:01.944Z,98.83
2023-04-27T00:32:01.918Z,98.72
2023-04-27T00:33:01.937Z,98.52
2023-04-27T00:34:01.896Z,98.41
2023-04-27T00:35:01.895Z,97.99
2023-04-27T00:36:01.886Z,97.99
2023-04-27T00:37:01.850Z,97.99
2023-04-27T00:38:01.920Z,98.31
2023-04-27T00:39:01.841Z,98.52
2023-04-27T00:40:01.804Z,98.52
2023-04-27T00:41:01.876Z,98.62
2023-04-27T00:42:01.800Z,98.93
2023-04-27T00:43:01.810Z,99.76
2023-04-27T00:44:01.806Z,99.76
2023-04-27T00:45:01.784Z,99.14
2023-04-27T00:46:01.836Z,98.93
2023-04-27T00:47:01.797Z,98.62
2023-04-27T00:48:01.778Z,98.62
2023-04-27T00:49:01.755Z,98.52
2023-04-27T00:50:01.725Z,98.20
2023-04-27T00:51:01.736Z,97.99
2023-04-27T00:52:01.700Z,97.89
2023-04-27T00:53:01.674Z,97.68
2023-04-27T00:54:01.692Z,97.68
2023-04-27T00:55:01.675Z,97.47
2023-04-27T00:56:01.699Z,97.89
2023-04-27T00:57:01.662Z,98.93
2023-04-27T00:58:01.655Z,99.35
2023-04-27T00:59:01.671Z,99.66
2023-04-27T01:00:01.664Z,99.14
2023-04-27T01:01:01.696Z,99.04
2023-04-27T01:02:01.684Z,98.31
2023-04-27T01:03:01.749Z,98.52
2023-04-27T01:04:01.834Z,98.10
2023-04-27T01:05:01.596Z,99.14
2023-04-27T01:06:01.874Z,99.04
2023-04-27T01:07:01.560Z,98.83
2023-04-27T01:08:01.553Z,99.24
2023-04-27T01:09:01.548Z,98.93
2023-04-27T01:10:01.514Z,98.52
2023-04-27T01:11:01.543Z,98.52
2023-04-27T01:12:01.498Z,98.31
2023-04-27T01:13:01.479Z,98.41
2023-04-27T01:14:01.487Z,98.31
2023-04-27T01:15:01.518Z,98.20
2023-04-27T01:16:01.543Z,97.89
2023-04-27T01:17:01.497Z,97.78
2023-04-27T01:18:01.560Z,98.83
2023-04-27T01:19:01.489Z,98.83
2023-04-27T01:20:01.426Z,98.52
2023-04-27T01:21:01.457Z,98.62
2023-04-27T01:22:01.417Z,98.10
2023-04-27T01:23:01.426Z,98.31
2023-04-27T01:24:01.376Z,98.62
2023-04-27T01:25:01.383Z,99.76
2023-04-27T01:26:01.383Z,99.98
2023-04-27T01:27:01.367Z,99.87
2023-04-27T01:28:01.330Z,99.55
2023-04-27T01:29:01.341Z,99.45
2023-04-27T01:30:01.307Z,99.04
2023-04-27T01:31:01.361Z,99.04
2023-04-27T01:32:01.301Z,98.72
2023-04-27T01:33:01.375Z,98.83
2023-04-27T01:34:01.279Z,98.52
2023-04-27T01:35:01.255Z,98.31
2023-04-27T01:36:01.303Z,98.93
2023-04-27T01:37:01.256Z,99.35
2023-04-27T01:38:01.243Z,99.99
2023-04-27T01:39:01.265Z,99.76
2023-04-27T01:40:01.212Z,99.20
2023-04-27T01:41:01.244Z,99.41
2023-04-27T01:42:01.209Z,99.99
2023-04-27T01:43:01.195Z,99.99
2023-04-27T01:44:01.194Z,99.93
2023-04-27T01:45:01.170Z,99.51
2023-04-27T01:46:01.232Z,99.30
2023-04-27T01:47:01.155Z,99.30
2023-04-27T01:48:01.202Z,99.30
2023-04-27T01:49:01.143Z,98.99
2023-04-27T01:50:01.122Z,98.99
2023-04-27T01:51:01.123Z,99.72
2023-04-27T01:52:01.090Z,99.41
2023-04-27T01:53:01.122Z,99.82
2023-04-27T01:54:01.084Z,99.99
2023-04-27T01:55:01.078Z,99.93
2023-04-27T01:56:01.093Z,99.62
2023-04-27T01:57:01.064Z,98.57
2023-04-27T01:58:01.050Z,98.78
2023-04-27T01:59:01.049Z,98.88
2023-04-27T02:00:01.045Z,99.57
2023-04-27T02:01:01.079Z,99.67
2023-04-27T02:02:01.141Z,99.67
2023-04-27T02:03:01.116Z,99.36
2023-04-27T02:04:01.203Z,99.99
2023-04-27T02:05:00.962Z,99.99
2023-04-27T02:06:00.979Z,99.67
2023-04-27T02:07:00.943Z,99.36
2023-04-27T02:08:00.942Z,98.74
2023-04-27T02:09:00.931Z,98.74
2023-04-27T02:10:00.928Z,98.74
2023-04-27T02:11:00.932Z,99.05
2023-04-27T02:12:00.928Z,99.26
2023-04-27T02:13:00.886Z,99.26
2023-04-27T02:14:00.885Z,99.15
2023-04-27T02:15:00.875Z,99.57
2023-04-27T02:16:00.936Z,99.51
2023-04-27T02:17:00.889Z,99.67
2023-04-27T02:18:00.862Z,99.51
2023-04-27T02:19:00.836Z,99.10
2023-04-27T02:20:00.800Z,99.41
2023-04-27T02:21:00.833Z,99.82
2023-04-27T02:22:00.832Z,99.72
2023-04-27T02:23:00.816Z,99.82
2023-04-27T02:24:00.778Z,99.72
2023-04-27T02:25:00.807Z,99.82
2023-04-27T02:26:00.812Z,99.82
2023-04-27T02:27:00.792Z,99.41
2023-04-27T02:28:00.729Z,98.88
2023-04-27T02:29:00.732Z,99.10
2023-04-27T02:30:00.710Z,98.83
2023-04-27T02:31:00.757Z,98.10
2023-04-27T02:32:00.766Z,98.31
2023-04-27T02:33:00.870Z,98.20
2023-04-27T02:34:00.678Z,98.66
2023-04-27T02:35:00.700Z,98.25
2023-04-27T02:36:00.670Z,98.04
2023-04-27T02:37:00.641Z,98.35
2023-04-27T02:38:00.623Z,99.29
2023-04-27T02:39:00.628Z,99.50
2023-04-27T02:40:00.677Z,99.99
2023-04-27T02:41:00.622Z,99.75
2023-04-27T02:42:00.625Z,99.99
2023-04-27T02:43:00.590Z,99.99
2023-04-27T02:44:00.592Z,99.99
2023-04-27T02:45:00.605Z,99.99
2023-04-27T02:46:00.537Z,99.99
2023-04-27T02:47:00.794Z,99.99
2023-04-27T02:48:00.608Z,99.99
2023-04-27T02:49:00.536Z,99.99
2023-04-27T02:50:00.523Z,99.99
2023-04-27T02:51:00.549Z,99.99
2023-04-27T02:52:00.546Z,99.99
2023-04-27T02:53:00.466Z,99.99
2023-04-27T02:54:00.487Z,99.99
2023-04-27T02:55:00.451Z,99.99
2023-04-27T02:56:00.447Z,99.99
2023-04-27T02:57:00.478Z,99.99
2023-04-27T02:58:00.418Z,99.99
2023-04-27T02:59:00.437Z,99.99
2023-04-27T03:00:00.397Z,99.99
2023-04-27T03:01:00.441Z,99.99
2023-04-27T03:02:00.396Z,99.99
2023-04-27T03:03:00.488Z,99.99
2023-04-27T03:04:00.570Z,99.99
2023-04-27T03:05:00.356Z,99.99
2023-04-27T03:06:00.361Z,99.99
2023-04-27T03:07:00.386Z,99.99
2023-04-27T03:08:00.319Z,99.99
2023-04-27T03:09:00.330Z,99.99
2023-04-27T03:10:00.303Z,99.99
2023-04-27T03:11:00.295Z,99.99
2023-04-27T03:12:00.345Z,99.99
2023-04-27T03:13:00.309Z,99.99
2023-04-27T03:14:00.273Z,99.99
2023-04-27T03:15:00.255Z,99.99
2023-04-27T03:16:00.307Z,99.99
2023-04-27T03:17:00.257Z,99.99
2023-04-27T03:18:00.276Z,99.99
2023-04-27T03:19:00.216Z,99.99
2023-04-27T03:20:00.256Z,99.99
2023-04-27T03:21:00.202Z,99.99
2023-04-27T03:22:00.218Z,99.99
2023-04-27T03:23:00.164Z,99.89
2023-04-27T03:24:00.170Z,99.99
2023-04-27T03:25:00.114Z,99.99
2023-04-27T03:26:00.156Z,99.99
2023-04-27T03:27:00.101Z,99.99
2023-04-27T03:28:00.075Z,99.99
2023-04-27T03:29:00.101Z,99.93
2023-04-27T03:30:00.065Z,99.99
2023-04-27T03:31:00.041Z,99.99
2023-04-27T03:32:00.246Z,99.99
2023-04-27T03:33:00.054Z,99.99
2023-04-27T03:33:59.997Z,99.99
2023-04-27T03:34:59.988Z,99.99
2023-04-27T03:35:59.992Z,99.99
2023-04-27T03:37:00.055Z,99.99
2023-04-27T03:37:59.987Z,99.99
2023-04-27T03:38:59.978Z,99.99
2023-04-27T03:39:59.971Z,99.99
2023-04-27T03:40:59.915Z,99.99
2023-04-27T03:41:59.992Z,99.99
2023-04-27T03:42:59.940Z,99.99
2023-04-27T03:43:59.917Z,99.99
2023-04-27T03:44:59.886Z,99.99
2023-04-27T03:45:59.925Z,99.99
2023-04-27T03:46:59.900Z,99.99
2023-04-27T03:47:59.923Z,99.99
2023-04-27T03:48:59.870Z,99.99
2023-04-27T03:49:59.881Z,99.99
2023-04-27T03:50:59.843Z,99.99
2023-04-27T03:51:59.849Z,99.99
2023-04-27T03:52:59.800Z,99.99
2023-04-27T03:53:59.807Z,99.99
2023-04-27T03:54:59.779Z,99.99
2023-04-27T03:55:59.813Z,99.99
2023-04-27T03:56:59.782Z,99.99
2023-04-27T03:57:59.759Z,99.99
2023-04-27T03:58:59.762Z,99.99
2023-04-27T03:59:59.738Z,99.99
2023-04-27T04:00:59.730Z,99.99
2023-04-27T04:02:01.279Z,99.99
2023-04-27T04:02:59.908Z,99.99
2023-04-27T04:03:59.801Z,99.99
2023-04-27T04:04:59.743Z,99.99
2023-04-27T04:05:59.684Z,99.99
2023-04-27T04:06:59.702Z,99.99
2023-04-27T04:07:59.649Z,99.99
2023-04-27T04:08:59.652Z,99.99
2023-04-27T04:09:59.624Z,99.99
2023-04-27T04:10:59.661Z,99.99
2023-04-27T04:11:59.658Z,99.99
2023-04-27T04:12:59.629Z,99.99
2023-04-27T04:13:59.612Z,99.99
2023-04-27T04:14:59.609Z,99.99
2023-04-27T04:15:59.597Z,99.99
2023-04-27T04:16:59.616Z,99.99
2023-04-27T04:17:59.605Z,99.99
2023-04-27T04:18:59.571Z,99.99
2023-04-27T04:19:59.551Z,99.99
2023-04-27T04:20:59.540Z,99.99
2023-04-27T04:21:59.589Z,99.99
2023-04-27T04:22:59.566Z,99.99
2023-04-27T04:23:59.529Z,99.99
2023-04-27T04:24:59.502Z,99.99
2023-04-27T04:25:59.481Z,99.99
2023-04-27T04:26:59.502Z,99.99
2023-04-27T04:27:59.455Z,99.99
2023-04-27T04:28:59.458Z,99.99
2023-04-27T04:29:59.454Z,99.99
2023-04-27T04:30:59.449Z,99.99
2023-04-27T04:31:59.521Z,99.99
2023-04-27T04:32:59.501Z,99.99
2023-04-27T04:33:59.415Z,99.99
2023-04-27T04:34:59.377Z,99.99
2023-04-27T04:35:59.381Z,99.99
2023-04-27T04:36:59.411Z,99.99
2023-04-27T04:37:59.361Z,99.99
2023-04-27T04:38:59.454Z,99.99
2023-04-27T04:39:59.338Z,99.99
2023-04-27T04:40:59.324Z,99.99
2023-04-27T04:41:59.352Z,99.99
2023-04-27T04:42:59.318Z,99.99
2023-04-27T04:43:59.308Z,99.99
2023-04-27T04:44:59.279Z,99.99
2023-04-27T04:45:59.275Z,99.99
2023-04-27T04:46:59.455Z,99.99
2023-04-27T04:47:59.315Z,99.99
2023-04-27T04:48:59.268Z,99.99
2023-04-27T04:49:59.276Z,99.99
2023-04-27T04:50:59.227Z,99.80
2023-04-27T04:51:59.261Z,99.99
2023-04-27T04:52:59.232Z,99.96
2023-04-27T04:54:01.633Z,99.44
2023-04-27T04:54:59.466Z,99.18
2023-04-27T04:55:59.303Z,99.18
2023-04-27T04:56:59.249Z,98.92
2023-04-27T04:57:59.200Z,99.23
2023-04-27T04:58:59.147Z,99.13
2023-04-27T04:59:59.150Z,99.99
2023-04-27T05:00:59.124Z,99.99
2023-04-27T05:01:59.188Z,99.81
2023-04-27T05:02:59.315Z,99.71
2023-04-27T05:03:59.318Z,99.24
2023-04-27T05:04:59.148Z,98.57
2023-04-27T05:05:59.130Z,98.22
2023-04-27T05:06:59.109Z,97.44
2023-04-27T05:07:59.058Z,96.31
2023-04-27T05:08:59.056Z,94.46
2023-04-27T05:09:59.050Z,91.47
2023-04-27T05:10:59.028Z,89.94
2023-04-27T05:11:59.044Z,88.40
2023-04-27T05:12:59.014Z,85.57
2023-04-27T05:13:59.010Z,84.66
2023-04-27T05:14:58.993Z,83.18
2023-04-27T05:15:59.019Z,82.83
2023-04-27T05:16:58.993Z,81.07
2023-04-27T05:17:58.994Z,80.46
2023-04-27T05:18:58.951Z,80.76
2023-04-27T05:19:59.239Z,81.14
2023-04-27T05:20:59.005Z,80.90
2023-04-27T05:21:58.969Z,79.04
2023-04-27T05:22:58.887Z,78.90
2023-04-27T05:23:58.901Z,77.66
2023-04-27T05:24:58.869Z,77.42
2023-04-27T05:25:58.890Z,75.67
2023-04-27T05:27:00.742Z,75.67
2023-04-27T05:27:58.879Z,76.21
2023-04-27T05:28:58.904Z,76.56
2023-04-27T05:29:58.841Z,76.77
2023-04-27T05:30:58.868Z,75.53
2023-04-27T05:31:58.959Z,75.98
2023-04-27T05:32:58.825Z,77.63
2023-04-27T05:33:58.855Z,78.45
2023-04-27T05:34:59.195Z,78.35
2023-04-27T05:35:58.811Z,77.28
2023-04-27T05:36:58.851Z,76.87
2023-04-27T05:37:58.780Z,76.01
2023-04-27T05:38:58.765Z,75.09
2023-04-27T05:39:58.790Z,75.32
2023-04-27T05:40:58.751Z,73.54
2023-04-27T05:41:58.753Z,71.34
2023-04-27T05:42:58.785Z,70.86
2023-04-27T05:43:58.839Z,69.63
2023-04-27T05:44:58.734Z,69.70
2023-04-27T05:45:58.725Z,68.54
2023-04-27T05:46:58.744Z,68.10
2023-04-27T05:47:58.723Z,67.44
2023-04-27T05:48:58.667Z,64.13
2023-04-27T05:49:58.669Z,65.67
2023-04-27T05:50:58.721Z,65.19
2023-04-27T05:51:58.683Z,64.95
2023-04-27T05:52:58.697Z,65.74
2023-04-27T05:53:58.623Z,64.72
2023-04-27T05:54:58.584Z,64.44
2023-04-27T05:55:58.595Z,66.97
2023-04-27T05:56:58.725Z,66.60
2023-04-27T05:58:07.979Z,66.51
2023-04-27T05:59:00.524Z,61.34
2023-04-27T05:59:58.552Z,58.45
2023-04-27T06:00:58.630Z,58.91
2023-04-27T06:01:58.624Z,55.69
2023-04-27T06:02:58.692Z,54.24
2023-04-27T06:03:58.582Z,55.66
2023-04-27T06:04:58.500Z,55.41
2023-04-27T06:05:59.120Z,55.18
2023-04-27T06:06:58.453Z,51.77
2023-04-27T06:07:58.492Z,51.14
2023-04-27T06:08:58.447Z,51.56
2023-04-27T06:09:58.439Z,51.39
2023-04-27T06:10:58.934Z,51.84
2023-04-27T06:11:58.438Z,53.88
2023-04-27T06:12:58.414Z,51.49
2023-04-27T06:13:58.455Z,47.63
2023-04-27T06:14:58.376Z,47.20
2023-04-27T06:15:58.437Z,48.52
2023-04-27T06:16:58.338Z,46.27
2023-04-27T06:17:58.451Z,44.85
2023-04-27T06:18:58.366Z,45.64
2023-04-27T06:19:58.320Z,46.00
2023-04-27T06:20:58.293Z,42.13
2023-04-27T06:21:58.345Z,41.54
2023-04-27T06:22:58.346Z,41.74
2023-04-27T06:23:58.299Z,42.63
2023-04-27T06:24:58.265Z,41.05
2023-04-27T06:25:58.270Z,41.77
2023-04-27T06:26:58.233Z,44.10
2023-04-27T06:27:58.277Z,43.51
2023-04-27T06:28:58.286Z,45.01
2023-04-27T06:29:58.208Z,42.94
2023-04-27T06:30:58.207Z,43.52
2023-04-27T06:31:58.230Z,43.08
2023-04-27T06:32:58.228Z,40.53
2023-04-27T06:33:58.193Z,40.94
2023-04-27T06:34:58.147Z,41.64
2023-04-27T06:35:58.214Z,41.22
2023-04-27T06:36:58.143Z,40.88
2023-04-27T06:37:58.166Z,38.96
2023-04-27T06:38:58.159Z,38.76
2023-04-27T06:39:58.105Z,38.17
2023-04-27T06:40:58.106Z,40.11
2023-04-27T06:41:58.104Z,40.94
2023-04-27T06:42:58.088Z,40.98
2023-04-27T06:43:59.055Z,40.80
2023-04-27T06:44:58.125Z,41.71
2023-04-27T06:45:58.122Z,41.78
2023-04-27T06:46:58.033Z,40.59
2023-04-27T06:47:58.110Z,39.73
2023-04-27T06:48:58.009Z,43.20
2023-04-27T06:49:58.044Z,46.25
2023-04-27T06:50:57.976Z,45.42
2023-04-27T06:51:57.985Z,43.73
2023-04-27T06:52:58.032Z,40.59
2023-04-27T06:53:57.995Z,43.61
2023-04-27T06:54:57.971Z,41.24
2023-04-27T06:55:57.923Z,43.02
2023-04-27T06:56:57.952Z,42.27
2023-04-27T06:57:57.936Z,40.73
2023-04-27T06:58:57.966Z,42.82
2023-04-27T06:59:57.982Z,40.46
2023-04-27T07:00:57.932Z,40.58
2023-04-27T07:01:57.997Z,41.79
2023-04-27T07:02:57.977Z,41.32
2023-04-27T07:03:58.020Z,42.54
2023-04-27T07:04:57.880Z,41.24
2023-04-27T07:05:57.822Z,42.69
2023-04-27T07:06:57.934Z,42.61
2023-04-27T07:07:58.286Z,39.04
2023-04-27T07:08:57.827Z,38.26
2023-04-27T07:09:57.818Z,42.43
2023-04-27T07:10:57.795Z,42.25
2023-04-27T07:11:57.853Z,41.97
2023-04-27T07:12:57.767Z,43.55
2023-04-27T07:13:57.789Z,43.65
2023-04-27T07:14:57.733Z,41.62
2023-04-27T07:15:58.003Z,41.64
2023-04-27T07:16:57.906Z,41.25
2023-04-27T07:17:57.777Z,43.08
2023-04-27T07:18:57.728Z,40.86
2023-04-27T07:19:57.699Z,41.07
2023-04-27T07:20:57.700Z,42.39
2023-04-27T07:21:57.677Z,43.96
2023-04-27T07:22:57.688Z,44.71
2023-04-27T07:23:57.662Z,45.14
2023-04-27T07:24:57.615Z,45.04
2023-04-27T07:25:57.623Z,45.54
2023-04-27T07:26:57.614Z,43.53
2023-04-27T07:27:57.627Z,43.23
2023-04-27T07:28:57.601Z,41.88
2023-04-27T07:29:57.566Z,42.82
2023-04-27T07:30:57.581Z,41.94
2023-04-27T07:31:57.566Z,44.79
2023-04-27T07:32:57.673Z,44.20
2023-04-27T07:33:57.567Z,46.86
2023-04-27T07:34:57.588Z,47.27
2023-04-27T07:35:57.501Z,46.33
2023-04-27T07:36:57.549Z,45.39
2023-04-27T07:37:57.564Z,43.90
2023-04-27T07:38:57.489Z,46.50
2023-04-27T07:39:57.497Z,44.73
2023-04-27T07:40:57.440Z,39.71
2023-04-27T07:41:57.478Z,41.42
2023-04-27T07:42:57.462Z,41.19
2023-04-27T07:43:57.427Z,44.04
2023-04-27T07:44:57.555Z,44.52
2023-04-27T07:45:57.438Z,41.44
2023-04-27T07:46:57.426Z,39.17
2023-04-27T07:47:58.850Z,38.14
2023-04-27T07:48:57.384Z,40.23
2023-04-27T07:49:57.359Z,38.88
2023-04-27T07:50:57.361Z,35.31
2023-04-27T07:51:57.312Z,34.72
2023-04-27T07:52:57.335Z,34.62
2023-04-27T07:53:57.297Z,36.37
2023-04-27T07:54:57.303Z,37.54
2023-04-27T07:55:57.269Z,38.68
2023-04-27T07:56:57.288Z,38.72
2023-04-27T07:57:57.334Z,39.46
2023-04-27T07:58:57.273Z,36.34
2023-04-27T07:59:57.244Z,38.01
2023-04-27T08:00:57.240Z,38.34
2023-04-27T08:02:10.846Z,41.17
2023-04-27T08:02:57.726Z,38.21
2023-04-27T08:03:57.480Z,38.57
2023-04-27T08:04:57.462Z,41.48
2023-04-27T08:05:57.532Z,38.40
2023-04-27T08:06:57.389Z,39.50
2023-04-27T08:07:57.510Z,37.57
2023-04-27T08:08:57.169Z,39.86
2023-04-27T08:09:57.154Z,38.48
2023-04-27T08:10:57.161Z,36.52
2023-04-27T08:11:57.114Z,34.67
2023-04-27T08:12:57.122Z,32.56
2023-04-27T08:13:57.108Z,33.68
2023-04-27T08:14:57.081Z,34.30
2023-04-27T08:15:57.104Z,34.22
2023-04-27T08:16:57.142Z,34.61
2023-04-27T08:17:57.124Z,31.85
2023-04-27T08:18:58.599Z,33.26
2023-04-27T08:19:57.027Z,33.01
2023-04-27T08:20:57.027Z,33.88
2023-04-27T08:21:57.029Z,34.36
2023-04-27T08:22:57.030Z,32.03
2023-04-27T08:23:56.995Z,32.75
2023-04-27T08:24:56.988Z,33.62
2023-04-27T08:25:56.952Z,30.48
2023-04-27T08:26:56.951Z,31.56
2023-04-27T08:27:56.986Z,31.35
2023-04-27T08:28:56.970Z,35.48
2023-04-27T08:29:56.939Z,37.26
2023-04-27T08:30:56.966Z,38.20
2023-04-27T08:31:57.217Z,32.44
2023-04-27T08:32:56.939Z,32.52
2023-04-27T08:33:56.900Z,34.91
2023-04-27T08:34:56.872Z,36.66
2023-04-27T08:35:56.856Z,37.37
2023-04-27T08:36:56.872Z,37.40
2023-04-27T08:37:56.875Z,36.74
2023-04-27T08:38:56.886Z,36.66
2023-04-27T08:39:56.827Z,32.96
2023-04-27T08:40:58.131Z,32.93
2023-04-27T08:41:56.813Z,32.87
2023-04-27T08:42:56.837Z,33.45
2023-04-27T08:43:59.044Z,30.40
2023-04-27T08:44:56.767Z,30.54
2023-04-27T08:45:56.779Z,26.51
2023-04-27T08:46:56.763Z,26.91
2023-04-27T08:47:56.853Z,28.30
2023-04-27T08:48:56.756Z,26.39
2023-04-27T08:49:56.718Z,24.18
2023-04-27T08:50:56.710Z,26.50
2023-04-27T08:51:56.704Z,27.72
2023-04-27T08:52:56.737Z,30.21
2023-04-27T08:53:56.708Z,31.52
2023-04-27T08:54:56.693Z,33.18
2023-04-27T08:55:56.673Z,35.82
2023-04-27T08:56:56.657Z,34.77
2023-04-27T08:57:56.669Z,34.20
2023-04-27T08:58:56.641Z,33.26
2023-04-27T08:59:56.622Z,30.55
2023-04-27T09:00:56.612Z,30.46
2023-04-27T09:01:56.639Z,30.46
2023-04-27T09:02:56.731Z,31.98
2023-04-27T09:03:56.733Z,32.99
2023-04-27T09:04:56.836Z,34.05
2023-04-27T09:06:05.138Z,31.87
2023-04-27T09:06:56.565Z,32.96
2023-04-27T09:07:56.556Z,34.52
2023-04-27T09:08:56.546Z,31.79
2023-04-27T09:09:56.522Z,32.83
2023-04-27T09:10:56.524Z,30.80
2023-04-27T09:11:56.512Z,32.76
2023-04-27T09:12:56.540Z,32.08
2023-04-27T09:13:56.495Z,32.41
2023-04-27T09:14:56.478Z,33.35
2023-04-27T09:15:56.507Z,31.39
2023-04-27T09:16:56.470Z,33.59
2023-04-27T09:17:56.634Z,31.40
2023-04-27T09:18:56.450Z,31.13
2023-04-27T09:19:56.423Z,31.61
2023-04-27T09:20:56.426Z,35.28
2023-04-27T09:21:56.404Z,34.00
2023-04-27T09:22:56.419Z,32.57
2023-04-27T09:23:56.392Z,31.06
2023-04-27T09:24:56.378Z,32.11
2023-04-27T09:25:56.367Z,30.11
2023-04-27T09:26:56.689Z,30.88
2023-04-27T09:27:56.402Z,31.39
2023-04-27T09:28:56.346Z,28.91
2023-04-27T09:29:56.326Z,29.09
2023-04-27T09:30:56.303Z,28.75
2023-04-27T09:31:56.378Z,25.42
2023-04-27T09:32:56.369Z,27.84
2023-04-27T09:33:56.296Z,29.52
2023-04-27T09:34:56.277Z,28.22
2023-04-27T09:35:56.252Z,27.92
2023-04-27T09:36:56.253Z,29.90
2023-04-27T09:37:56.303Z,31.74
2023-04-27T09:38:56.249Z,27.10
2023-04-27T09:39:56.219Z,27.95
2023-04-27T09:40:56.225Z,25.92
2023-04-27T09:41:56.214Z,26.61
2023-04-27T09:42:56.239Z,28.89
2023-04-27T09:43:57.847Z,33.23
2023-04-27T09:44:56.186Z,34.27
2023-04-27T09:45:56.219Z,34.91
2023-04-27T09:46:56.173Z,23.65
2023-04-27T09:47:56.272Z,26.56
2023-04-27T09:48:56.158Z,27.06
2023-04-27T09:49:56.122Z,28.47
2023-04-27T09:50:56.183Z,28.77
2023-04-27T09:51:56.171Z,33.67
2023-04-27T09:52:56.114Z,31.91
2023-04-27T09:53:56.114Z,32.56
2023-04-27T09:54:56.087Z,30.67
2023-04-27T09:55:56.078Z,29.52
2023-04-27T09:56:56.118Z,30.79
2023-04-27T09:57:56.051Z,31.52
2023-04-27T09:58:56.111Z,33.18
2023-04-27T09:59:56.062Z,30.90
2023-04-27T10:00:56.069Z,29.56
2023-04-27T10:01:56.056Z,32.82
2023-04-27T10:03:03.098Z,27.45
2023-04-27T10:03:56.156Z,30.51
2023-04-27T10:04:56.013Z,27.22
2023-04-27T10:05:56.042Z,31.95
2023-04-27T10:06:57.722Z,30.60
2023-04-27T10:07:55.973Z,28.71
2023-04-27T10:08:55.938Z,29.75
2023-04-27T10:09:55.922Z,28.15
2023-04-27T10:10:55.917Z,30.84
2023-04-27T10:11:55.986Z,27.62
2023-04-27T10:12:55.905Z,30.38
2023-04-27T10:13:55.899Z,29.64
2023-04-27T10:14:55.875Z,33.70
2023-04-27T10:15:55.874Z,30.46
2023-04-27T10:16:55.906Z,27.69
2023-04-27T10:17:55.843Z,25.88
2023-04-27T10:18:55.836Z,27.36
2023-04-27T10:19:57.839Z,26.85
2023-04-27T10:20:55.819Z,27.08
2023-04-27T10:21:55.800Z,29.91
2023-04-27T10:22:55.874Z,28.58
2023-04-27T10:23:55.800Z,27.49
2023-04-27T10:24:55.766Z,28.18
2023-04-27T10:25:55.784Z,30.83
2023-04-27T10:26:55.767Z,29.32
2023-04-27T10:27:55.807Z,29.61
2023-04-27T10:28:55.753Z,31.20
2023-04-27T10:29:55.734Z,31.57
2023-04-27T10:30:55.755Z,28.24
2023-04-27T10:31:55.703Z,27.34
2023-04-27T10:32:55.770Z,27.75
2023-04-27T10:33:55.698Z,25.57
2023-04-27T10:34:55.687Z,31.34
2023-04-27T10:35:55.666Z,28.55
2023-04-27T10:36:55.695Z,29.22
2023-04-27T10:37:55.656Z,28.47
2023-04-27T10:38:55.689Z,29.13
2023-04-27T10:39:55.627Z,29.85
2023-04-27T10:40:55.663Z,28.96
2023-04-27T10:41:55.622Z,28.14
2023-04-27T10:42:55.611Z,28.11
2023-04-27T10:43:55.627Z,26.51
2023-04-27T10:44:55.587Z,27.81
2023-04-27T10:45:55.611Z,28.43
2023-04-27T10:46:55.608Z,26.04
2023-04-27T10:47:55.651Z,25.45
2023-04-27T10:48:55.568Z,28.49
2023-04-27T10:49:55.597Z,29.33
2023-04-27T10:50:55.531Z,27.72
2023-04-27T10:51:55.565Z,28.81
2023-04-27T10:52:55.519Z,29.41
2023-04-27T10:53:55.548Z,29.98
2023-04-27T10:54:55.512Z,25.33
2023-04-27T10:55:55.494Z,28.05
2023-04-27T10:56:55.526Z,26.43
2023-04-27T10:57:55.470Z,26.28
2023-04-27T10:58:55.471Z,27.08
2023-04-27T10:59:55.523Z,28.64
2023-04-27T11:00:55.448Z,25.33
2023-04-27T11:01:55.480Z,23.43
2023-04-27T11:02:55.481Z,23.10
2023-04-27T11:03:55.449Z,23.19
2023-04-27T11:04:55.421Z,24.30
2023-04-27T11:05:57.046Z,23.13
2023-04-27T11:06:55.381Z,23.76
2023-04-27T11:07:55.393Z,24.63
2023-04-27T11:08:55.375Z,28.58
2023-04-27T11:09:55.371Z,25.46
2023-04-27T11:10:55.393Z,25.74
2023-04-27T11:11:55.372Z,26.21
2023-04-27T11:12:55.389Z,29.38
2023-04-27T11:13:55.379Z,25.73
2023-04-27T11:14:55.306Z,25.29
2023-04-27T11:15:55.343Z,23.66
2023-04-27T11:16:55.281Z,23.56
2023-04-27T11:17:55.376Z,22.16
2023-04-27T11:18:55.265Z,23.86
2023-04-27T11:19:55.270Z,22.96
2023-04-27T11:20:55.259Z,26.87
2023-04-27T11:21:55.250Z,23.45
2023-04-27T11:22:55.266Z,25.34
2023-04-27T11:23:55.234Z,22.86
2023-04-27T11:24:55.206Z,24.61
2023-04-27T11:25:55.217Z,27.35
2023-04-27T11:26:55.188Z,24.34
2023-04-27T11:27:55.214Z,25.63
2023-04-27T11:28:55.217Z,24.96
2023-04-27T11:29:55.162Z,27.75
2023-04-27T11:30:55.142Z,33.40
2023-04-27T11:31:55.196Z,32.62
2023-04-27T11:32:55.198Z,29.27
2023-04-27T11:33:55.988Z,29.81
2023-04-27T11:34:56.625Z,28.68
2023-04-27T11:35:55.109Z,24.91
2023-04-27T11:36:58.702Z,24.49
2023-04-27T11:37:55.124Z,26.96
2023-04-27T11:38:55.111Z,25.95
2023-04-27T11:39:55.101Z,26.34
2023-04-27T11:40:55.068Z,27.81
2023-04-27T11:41:55.056Z,23.52
2023-04-27T11:42:55.056Z,21.30
2023-04-27T11:43:55.054Z,22.70
2023-04-27T11:44:55.011Z,21.59
2023-04-27T11:45:55.043Z,20.54
2023-04-27T11:46:55.041Z,21.48
2023-04-27T11:47:55.198Z,21.91
2023-04-27T11:48:55.004Z,24.10
2023-04-27T11:49:55.018Z,22.22
2023-04-27T11:50:55.013Z,22.54
2023-04-27T11:51:55.022Z,23.06
2023-04-27T11:52:54.988Z,24.11
2023-04-27T11:53:54.969Z,25.06
2023-04-27T11:54:54.938Z,28.31
2023-04-27T11:55:54.951Z,37.41
2023-04-27T11:56:54.907Z,31.90
2023-04-27T11:57:55.450Z,33.66
2023-04-27T11:58:54.921Z,34.20
2023-04-27T11:59:54.892Z,34.01
2023-04-27T12:00:54.848Z,34.03
2023-04-27T12:01:54.882Z,32.73
2023-04-27T12:02:54.979Z,35.77
2023-04-27T12:03:54.999Z,33.54
2023-04-27T12:04:55.104Z,37.10
2023-04-27T12:05:54.972Z,40.53
2023-04-27T12:06:54.792Z,36.88
2023-04-27T12:07:54.831Z,34.56
2023-04-27T12:08:54.809Z,35.09
2023-04-27T12:09:54.828Z,36.21
2023-04-27T12:10:54.789Z,34.58
2023-04-27T12:11:54.751Z,35.31
2023-04-27T12:12:54.765Z,39.26
2023-04-27T12:13:54.747Z,37.13
2023-04-27T12:14:54.724Z,41.07
2023-04-27T12:15:54.727Z,35.92
2023-04-27T12:16:54.766Z,39.98
2023-04-27T12:17:54.748Z,39.06
2023-04-27T12:18:54.679Z,37.62
2023-04-27T12:19:54.690Z,34.09
2023-04-27T12:20:54.759Z,33.29
2023-04-27T12:21:54.627Z,36.27
2023-04-27T12:22:54.657Z,38.70
2023-04-27T12:23:54.641Z,43.14
2023-04-27T12:24:54.600Z,34.82
2023-04-27T12:25:54.601Z,35.42
2023-04-27T12:26:54.636Z,37.27
2023-04-27T12:27:54.605Z,34.55
2023-04-27T12:28:54.595Z,37.71
2023-04-27T12:29:54.594Z,36.82
2023-04-27T12:30:54.627Z,35.39
2023-04-27T12:31:54.583Z,35.88
2023-04-27T12:32:54.653Z,38.32
2023-04-27T12:33:54.566Z,35.88
2023-04-27T12:34:54.506Z,36.82
2023-04-27T12:35:54.490Z,41.09
2023-04-27T12:36:54.515Z,37.51
2023-04-27T12:37:54.514Z,36.19
2023-04-27T12:38:54.480Z,36.41
2023-04-27T12:39:54.465Z,37.63
2023-04-27T12:40:54.440Z,34.99
2023-04-27T12:41:54.456Z,36.31
2023-04-27T12:42:54.450Z,36.22
2023-04-27T12:43:54.446Z,36.63
2023-04-27T12:44:54.419Z,35.42
2023-04-27T12:45:54.510Z,37.66
2023-04-27T12:46:54.410Z,39.99
2023-04-27T12:48:01.761Z,39.69
2023-04-27T12:48:54.401Z,36.12
2023-04-27T12:49:54.354Z,38.76
2023-04-27T12:50:54.353Z,37.45
2023-04-27T12:51:54.318Z,38.26